地図

経路データ

SID SEASON NUMBER BASIN SUBBASIN NAME ISO_TIME NATURE LAT LON WMO_WIND WMO_PRES WMO_AGENCY TRACK_TYPE DIST2LAND LANDFALL IFLAG USA_AGENCY USA_ATCF_ID USA_LAT USA_LON USA_RECORD USA_STATUS USA_WIND USA_PRES USA_SSHS USA_R34_NE USA_R34_SE USA_R34_SW USA_R34_NW USA_R50_NE USA_R50_SE USA_R50_SW USA_R50_NW USA_R64_NE USA_R64_SE USA_R64_SW USA_R64_NW USA_POCI USA_ROCI USA_RMW USA_EYE TOKYO_LAT TOKYO_LON TOKYO_GRADE TOKYO_WIND TOKYO_PRES TOKYO_R50_DIR TOKYO_R50_LONG TOKYO_R50_SHORT TOKYO_R30_DIR TOKYO_R30_LONG TOKYO_R30_SHORT TOKYO_LAND CMA_LAT CMA_LON CMA_CAT CMA_WIND CMA_PRES HKO_LAT HKO_LON HKO_CAT HKO_WIND HKO_PRES NEWDELHI_LAT NEWDELHI_LON NEWDELHI_GRADE NEWDELHI_WIND NEWDELHI_PRES NEWDELHI_CI NEWDELHI_DP NEWDELHI_POCI REUNION_LAT REUNION_LON REUNION_TYPE REUNION_WIND REUNION_PRES REUNION_TNUM REUNION_CI REUNION_RMW REUNION_R34_NE REUNION_R34_SE REUNION_R34_SW REUNION_R34_NW REUNION_R50_NE REUNION_R50_SE REUNION_R50_SW REUNION_R50_NW REUNION_R64_NE REUNION_R64_SE REUNION_R64_SW REUNION_R64_NW BOM_LAT BOM_LON BOM_TYPE BOM_WIND BOM_PRES BOM_TNUM BOM_CI BOM_RMW BOM_R34_NE BOM_R34_SE BOM_R34_SW BOM_R34_NW BOM_R50_NE BOM_R50_SE BOM_R50_SW BOM_R50_NW BOM_R64_NE BOM_R64_SE BOM_R64_SW BOM_R64_NW BOM_ROCI BOM_POCI BOM_EYE BOM_POS_METHOD BOM_PRES_METHOD NADI_LAT NADI_LON NADI_CAT NADI_WIND NADI_PRES WELLINGTON_LAT WELLINGTON_LON WELLINGTON_WIND WELLINGTON_PRES DS824_LAT DS824_LON DS824_STAGE DS824_WIND DS824_PRES TD9636_LAT TD9636_LON TD9636_STAGE TD9636_WIND TD9636_PRES TD9635_LAT TD9635_LON TD9635_WIND TD9635_PRES TD9635_ROCI NEUMANN_LAT NEUMANN_LON NEUMANN_CLASS NEUMANN_WIND NEUMANN_PRES MLC_LAT MLC_LON MLC_CLASS MLC_WIND MLC_PRES USA_GUST BOM_GUST BOM_GUST_PER REUNION_GUST REUNION_GUST_PER USA_SEAHGT USA_SEARAD_NE USA_SEARAD_SE USA_SEARAD_SW USA_SEARAD_NW STORM_SPEED STORM_DIR
1953260N07153 1953 56 WP MM TESS 1953-09-16 12:00:00 TS 6.50000 153.000 1008 tokyo main 1057 1057 _OO___________ -1 6.50000 153.000 2 1008 0 0 0 6.50000 153.000 0 1008 15 332
1953260N07153 1953 56 WP MM TESS 1953-09-16 15:00:00 TS 7.15010 152.655 main 1127 1125 _PP___________ -1 7.14262 152.648 2 1007 0 0 7.15758 152.663 0 1007 15 332
1953260N07153 1953 56 WP MM TESS 1953-09-16 18:00:00 TS 7.80000 152.300 1006 tokyo main 1186 1186 _OO___________ -1 7.80000 152.300 2 1006 0 0 0 7.80000 152.300 0 1006 15 330
1953260N07153 1953 56 WP MM TESS 1953-09-16 21:00:00 TS 8.43111 151.916 main 1248 1248 _PP___________ -1 8.45982 151.945 2 1005 0 0 8.40239 151.887 0 1005 15 323
1953260N07153 1953 56 WP MM TESS 1953-09-17 00:00:00 TS 8.96667 151.400 1005 tokyo main 1312 1311 OOO______OOO__ jtwc_wp WP151953 9.00000 151.300 20 -1 9.00000 151.500 2 1005 0 0 0 8.90000 151.400 1 29 1005 9.00000 151.300 TC 20 9.00000 151.300 1 20 9.00000 151.300 20 1006 120 14 309
1953260N07153 1953 56 WP MM TESS 1953-09-17 03:00:00 TS 9.29982 150.814 main 1331 1328 PPP______PPP__ WP151953 9.33512 150.803 20 -1 9.31766 150.865 2 1004 0 0 9.26759 150.800 1 29 1004 9.33512 150.803 TC 20 9.22267 150.776 1 20 9.33512 150.803 20 1005 150 13 297
1953260N07153 1953 56 WP MM TESS 1953-09-17 06:00:00 TS 9.53690 150.254 1003 tokyo main 1339 1336 OOO______OPO__ jtwc_wp WP151953 9.60000 150.300 20 -1 9.50000 150.200 2 1003 0 0 0 9.50000 150.200 1 29 1004 9.60000 150.300 TC 20 9.44597 150.261 1 20 9.60000 150.300 20 1004 180 11 291
1953260N07153 1953 56 WP MM TESS 1953-09-17 09:00:00 TS 9.70763 149.759 main 1348 1344 PPP______PPP__ WP151953 9.75746 149.792 20 -1 9.67232 149.677 2 1002 0 0 9.62981 149.735 1 29 1003 9.75746 149.792 TC 20 9.67126 149.765 1 20 9.75746 149.792 20 1003 180 10 288
1953260N07153 1953 56 WP MM TESS 1953-09-17 12:00:00 TS 9.85000 149.283 1002 tokyo main 1361 1356 OOO______OOO__ jtwc_wp WP151953 9.90000 149.300 20 -1 9.80000 149.200 2 1002 0 0 0 9.70000 149.300 1 29 1002 9.90000 149.300 TC 20 9.90000 149.300 1 20 9.90000 149.300 20 1002 180 10 290
1953260N07153 1953 56 WP MM TESS 1953-09-17 15:00:00 TS 10.0443 148.817 main 1364 1364 PPP______PPP__ WP151953 10.1499 148.843 20 -1 9.89993 148.700 2 1001 0 0 9.78496 148.807 1 33 1001 10.1499 148.843 TC 20 10.1309 148.868 1 20 10.1499 148.843 20 1001 180 10 293
1953260N07153 1953 56 WP MM TESS 1953-09-17 18:00:00 TS 10.2419 148.357 1000 tokyo main 1382 1382 OOO______OPO__ jtwc_wp WP151953 10.4000 148.400 20 -1 10.0000 148.200 2 1000 0 0 0 9.90000 148.300 2 38 1000 10.4000 148.400 TC 20 10.3515 148.445 1 20 10.4000 148.400 20 1000 180 10 292
1953260N07153 1953 56 WP MM TESS 1953-09-17 21:00:00 TS 10.4164 147.900 main 1401 1401 PPP______PPP__ WP151953 10.5798 147.972 20 -1 10.1350 147.685 2 999 0 0 10.0774 147.800 2 43 999 10.5798 147.972 TC 20 10.5464 147.999 1 20 10.5798 147.972 20 999 180 10 289
1953260N07153 1953 56 WP MM TESS 1953-09-18 00:00:00 TS 10.5667 147.417 998 tokyo main 1423 1423 OOO______OOO__ jtwc_wp WP151953 10.7000 147.500 20 -1 10.3000 147.200 9 998 0 0 0 10.3000 147.300 3 48 998 10.7000 147.500 TC 20 10.7000 147.500 1 20 10.7000 147.500 20 998 180 10 285
1953260N07153 1953 56 WP MM TESS 1953-09-18 03:00:00 TS 10.6829 146.914 main 1434 1434 PPP______PPP__ WP151953 10.7649 146.937 20 -1 10.4845 146.860 9 999 0 0 10.5421 146.852 3 43 1000 10.7649 146.937 TC 20 10.7761 146.959 1 20 10.7649 146.937 20 999 180 11 282
1953260N07153 1953 56 WP MM TESS 1953-09-18 06:00:00 TS 10.7856 146.326 1001 tokyo main 1445 1445 OOO______OPO__ jtwc_wp WP151953 10.8000 146.300 20 -1 10.7000 146.400 9 1001 0 0 0 10.8000 146.300 2 38 1002 10.8000 146.300 TC 20 10.8137 146.356 1 20 10.8000 146.300 20 1001 180 13 280
1953260N07153 1953 56 WP MM TESS 1953-09-18 09:00:00 TS 10.8990 145.617 main 1460 1460 PPP______PPP__ WP151953 10.8422 145.652 20 -1 10.9578 145.568 9 1001 0 0 11.0651 145.503 2 38 1001 10.8422 145.652 TC 20 10.8445 145.675 1 20 10.8422 145.652 20 1000 180 15 279
1953260N07153 1953 56 WP MM TESS 1953-09-18 12:00:00 TS 11.0167 144.800 1002 tokyo main 1481 1481 OOO______OOO__ jtwc_wp WP151953 10.9000 144.900 20 -1 11.2000 144.600 9 1002 0 0 0 11.3000 144.600 2 38 1001 10.9000 144.900 TC 20 10.9000 144.900 1 20 10.9000 144.900 20 1000 180 17 278
1953260N07153 1953 56 WP MM TESS 1953-09-18 15:00:00 TS 11.1307 143.906 main 1508 1508 PPP______PPP__ WP151953 10.9775 143.995 20 -1 11.3646 143.750 9 1002 0 0 11.4723 143.742 2 38 1000 10.9775 143.995 TC 20 11.0147 143.958 1 20 10.9775 143.995 20 999 180 18 278
1953260N07153 1953 56 WP MM TESS 1953-09-18 18:00:00 TS 11.2596 142.956 1002 tokyo main 1539 1516 OOO______OPO__ jtwc_wp WP151953 11.1000 143.000 20 -1 11.5000 142.900 9 1002 0 0 0 11.6000 142.900 2 38 1000 11.1000 143.000 TC 20 11.1573 142.935 1 20 11.1000 143.000 20 999 180 19 279
1953260N07153 1953 56 WP MM TESS 1953-09-18 21:00:00 TS 11.4222 141.985 main 1516 1501 PPP______PPP__ WP151953 11.2851 141.970 20 -1 11.6575 141.978 9 1002 0 0 11.6997 142.100 2 43 999 11.2851 141.970 TC 20 11.3210 141.920 1 20 11.2851 141.970 20 999 180 19 280
1953260N07153 1953 56 WP MM TESS 1953-09-19 00:00:00 TS 11.6000 141.067 1002 tokyo main 1503 1486 OOO______OOO__ jtwc_wp WP151953 11.5000 141.000 20 -1 11.8000 141.100 2 1002 0 0 0 11.8000 141.300 3 48 999 11.5000 141.000 TC 20 11.5000 141.000 1 20 11.5000 141.000 20 999 180 17 282
1953260N07153 1953 56 WP MM TESS 1953-09-19 03:00:00 TS 11.7767 140.243 main 1489 1479 PPP______PPP__ WP151953 11.6998 140.167 35 0 11.9149 140.325 2 1000 0 0 11.9578 140.383 3 48 998 11.6998 140.167 TC 35 11.6884 140.248 1 27 11.6998 140.167 35 998 180 15 283
1953260N07153 1953 56 WP MM TESS 1953-09-19 06:00:00 TS 11.9485 139.568 998 tokyo main 1479 1447 OOO______OPO__ jtwc_wp WP151953 11.9000 139.500 50 0 12.0000 139.700 2 998 0 0 0 12.1000 139.600 3 48 997 11.9000 139.500 TC 50 11.8911 139.605 1 35 11.9000 139.500 50 997 180 12 286
1953260N07153 1953 56 WP MM TESS 1953-09-19 09:00:00 TS 12.0995 139.073 main 1447 1407 PPP______PPP__ WP151953 12.0997 138.982 50 0 12.0422 139.255 2 998 0 0 12.1570 139.175 3 53 995 12.0997 138.982 TC 50 12.0983 139.060 1 42 12.0997 138.982 50 995 180 9 290
1953260N07153 1953 56 WP MM TESS 1953-09-19 12:00:00 TS 12.2500 138.700 998 tokyo main 1409 1380 OOO______OOO__ jtwc_wp WP151953 12.3000 138.600 50 0 12.1000 138.900 9 998 0 0 0 12.2000 138.900 3 58 993 12.3000 138.600 TC 50 12.3000 138.600 2 50 12.3000 138.600 50 994 180 8 294
1953260N07153 1953 56 WP MM TESS 1953-09-19 15:00:00 TS 12.4219 138.348 main 1370 1340 PPP______PPP__ WP151953 12.5074 138.285 50 0 12.2349 138.500 9 998 0 0 12.2849 138.557 3 58 991 12.5074 138.285 TC 50 12.4897 138.175 2 53 12.5074 138.285 50 992 210 7 298
1953260N07153 1953 56 WP MM TESS 1953-09-19 18:00:00 TS 12.5953 138.022 998 tokyo main 1340 1309 OOO______OPO__ jtwc_wp WP151953 12.7000 138.000 50 0 12.4000 138.100 9 998 0 0 0 12.4000 138.200 3 58 990 12.7000 138.000 TC 50 12.6718 137.830 2 56 12.7000 138.000 50 991 240 8 296
1953260N07153 1953 56 WP MM TESS 1953-09-19 21:00:00 TS 12.7526 137.646 main 1300 1269 PPP______PPP__ WP151953 12.8651 137.628 55 0 12.5425 137.670 9 996 0 0 12.5351 137.778 3 63 988 12.8651 137.628 TC 55 12.8430 137.544 2 59 12.8651 137.628 56 989 240 8 294
1953260N07153 1953 56 WP MM TESS 1953-09-20 00:00:00 TS 12.9000 137.317 995 tokyo main 1269 1249 OOO______OOO__ jtwc_wp WP151953 13.0000 137.300 60 0 12.7000 137.300 9 995 0 0 0 12.7000 137.400 4 68 986 13.0000 137.300 TC 60 13.0000 137.300 2 62 13.0000 137.300 62 988 240 6 299
1953260N07153 1953 56 WP MM TESS 1953-09-20 03:00:00 TS 13.0339 137.119 main 1249 1241 PPP______PPP__ WP151953 13.0999 137.135 67 1 12.8924 137.070 9 990 0 0 12.8924 137.170 4 72 985 13.0999 137.135 TC 67 13.1188 137.068 2 65 13.0999 137.135 68 986 240 4 308
1953260N07153 1953 56 WP MM TESS 1953-09-20 06:00:00 TS 13.1712 136.962 985 tokyo main 1243 1223 OOO______OPO__ jtwc_wp WP151953 13.2000 137.000 75 1 13.1000 136.900 9 985 0 0 0 13.1000 137.000 4 77 984 13.2000 137.000 TC 75 13.2272 136.869 2 68 13.2000 137.000 75 984 240 5 308
1953260N07153 1953 56 WP MM TESS 1953-09-20 09:00:00 TS 13.3216 136.744 main 1213 1196 PPP______PPP__ WP151953 13.3275 136.757 75 1 13.3000 136.700 9 985 0 0 13.3000 136.807 4 77 985 13.3275 136.757 TC 75 13.3470 136.687 2 71 13.3275 136.757 75 985 240 5 307
1953260N07153 1953 56 WP MM TESS 1953-09-20 12:00:00 TS 13.5000 136.517 985 tokyo main 1196 1180 OOO______OOO__ jtwc_wp WP151953 13.5000 136.500 75 1 13.5000 136.500 9 985 0 0 0 13.5000 136.600 4 77 987 13.5000 136.500 TC 75 13.5000 136.500 3 75 13.5000 136.500 75 986 240 6 313
1953260N07153 1953 56 WP MM TESS 1953-09-20 15:00:00 TS 13.7138 136.304 main 1180 1164 PPP______PPP__ WP151953 13.7349 136.300 75 1 13.7000 136.292 9 987 0 0 13.6925 136.343 4 72 989 13.7349 136.300 TC 75 13.6856 136.290 3 72 13.7349 136.300 75 987 270 6 318
1953260N07153 1953 56 WP MM TESS 1953-09-20 18:00:00 TS 13.9516 136.095 990 tokyo main 1166 1146 OOO______OPO__ jtwc_wp WP151953 14.0000 136.100 75 1 13.9000 136.100 9 990 0 0 0 13.9000 136.100 4 68 992 14.0000 136.100 TC 75 13.9099 136.072 3 70 14.0000 136.100 75 989 300 6 319
1953260N07153 1953 56 WP MM TESS 1953-09-20 21:00:00 TS 14.1678 135.894 main 1148 1129 PPP______PPP__ WP151953 14.2200 135.865 70 1 14.0549 135.972 9 993 0 0 14.1124 135.957 4 68 993 14.2200 135.865 TC 70 14.1793 135.843 3 67 14.2200 135.865 70 991 330 7 320
1953260N07153 1953 56 WP MM TESS 1953-09-21 00:00:00 TS 14.4500 135.667 996 tokyo main 1133 1109 OOO______OOO__ jtwc_wp WP151953 14.5000 135.600 65 1 14.3000 135.800 9 996 0 0 0 14.4000 135.800 4 68 994 14.5000 135.600 TC 65 14.5000 135.600 4 65 14.5000 135.600 65 993 360 9 324
1953260N07153 1953 56 WP MM TESS 1953-09-21 03:00:00 TS 14.8670 135.373 main 1112 1090 PPP______PPP__ WP151953 14.9275 135.300 65 1 14.7476 135.473 9 996 0 0 14.8050 135.530 4 68 994 14.9275 135.300 TC 65 14.8666 135.335 4 67 14.9275 135.300 65 993 360 11 327
1953260N07153 1953 56 WP MM TESS 1953-09-21 06:00:00 TS 15.3471 135.060 996 tokyo main 1093 1077 OOO______OPO__ jtwc_wp WP151953 15.4000 135.000 65 1 15.3000 135.100 9 996 0 0 0 15.3000 135.200 4 68 994 15.4000 135.000 TC 65 15.2826 135.058 4 70 15.4000 135.000 65 993 360 11 328
1953260N07153 1953 56 WP MM TESS 1953-09-21 09:00:00 TS 15.8041 134.774 main 1081 1068 PPP______PPP__ WP151953 15.7999 134.742 70 1 15.8499 134.792 9 995 0 0 15.8425 134.850 4 68 994 15.7999 134.742 TC 70 15.7322 134.776 4 72 15.7999 134.742 70 992 450 11 330
1953260N07153 1953 56 WP MM TESS 1953-09-21 12:00:00 TS 16.2667 134.500 995 tokyo main 1073 1063 OOO______OOO__ jtwc_wp WP151953 16.2000 134.500 75 1 16.4000 134.500 9 995 0 0 0 16.4000 134.500 4 68 994 16.2000 134.500 TC 75 16.2000 134.500 4 75 16.2000 134.500 75 991 540 11 330
1953260N07153 1953 56 WP MM TESS 1953-09-21 15:00:00 TS 16.7242 134.222 main 1063 1060 PPP______PPP__ WP151953 16.6350 134.250 80 1 16.9000 134.185 9 994 0 0 16.9000 134.177 4 68 994 16.6350 134.250 TC 80 16.6404 134.218 4 81 16.6350 134.250 80 990 540 11 331
1953260N07153 1953 56 WP MM TESS 1953-09-21 18:00:00 TS 17.1996 133.958 994 tokyo main 1071 1062 OOO______OPO__ jtwc_wp WP151953 17.1000 134.000 85 2 17.4000 133.900 9 994 0 0 0 17.4000 133.900 4 68 994 17.1000 134.000 TC 85 17.0976 133.948 4 87 17.1000 134.000 85 990 540 11 334
1953260N07153 1953 56 WP MM TESS 1953-09-21 21:00:00 TS 17.7022 133.713 main 1074 1074 PPP______PPP__ WP151953 17.5625 133.735 92 2 17.9649 133.692 9 993 0 0 17.9799 133.677 4 82 988 17.5625 133.735 TC 92 17.5811 133.703 4 93 17.5625 133.735 92 989 540 11 337
1953260N07153 1953 56 WP MM TESS 1953-09-22 00:00:00 TS 18.2333 133.500 993 tokyo main 1084 1084 OOO______OOO__ jtwc_wp WP151953 18.1000 133.500 100 3 18.5000 133.500 9 993 0 0 0 18.5000 133.500 5 97 983 18.1000 133.500 TC 100 18.1000 133.500 4 100 18.1000 133.500 100 988 540 12 341
1953260N07153 1953 56 WP MM TESS 1953-09-22 03:00:00 TS 18.8117 133.314 main 1096 1096 PPP______PPP__ WP151953 18.8000 133.320 125 4 18.9525 133.243 9 946 0 0 18.8375 133.335 5 121 941 18.8000 133.320 TC 125 18.6801 133.344 4 108 18.8000 133.320 125 983 510 12 345
1953260N07153 1953 56 WP MM TESS 1953-09-22 06:00:00 TS 19.3654 133.172 900 tokyo main 1121 1118 OOO______OPO__ jtwc_wp WP151953 19.5000 133.200 150 5 19.3000 133.000 9 900 0 0 0 19.1000 133.200 6 145 899 19.5000 133.200 TC 150 19.2923 133.232 4 117 19.5000 133.200 150 979 480 10 348
1953260N07153 1953 56 WP MM TESS 1953-09-22 09:00:00 TS 19.8239 133.078 main 1136 1136 PPP______PPP__ WP151953 20.0299 133.142 142 5 19.5375 132.805 9 900 0 0 19.4075 133.085 6 145 902 20.0299 133.142 TC 142 19.9083 133.154 4 126 20.0299 133.142 142 967 480 9 350
1953260N07153 1953 56 WP MM TESS 1953-09-22 12:00:00 TS 20.2333 133.017 900 tokyo main 1140 1137 OOO______OOO__ jtwc_wp WP151953 20.5000 133.100 135 4 19.7000 132.700 9 900 0 0 0 19.7000 133.000 6 145 906 20.5000 133.100 TC 135 20.5000 133.100 4 135 20.5000 133.100 135 955 480 8 351
1953260N07153 1953 56 WP MM TESS 1953-09-22 15:00:00 TS 20.6333 132.944 main 1137 1137 PPP______PPP__ WP151953 21.0000 132.985 127 4 19.8125 132.727 9 900 0 0 19.9425 132.935 6 145 908 21.0000 132.985 TC 127 21.0449 133.045 4 131 21.0000 132.985 127 944 480 8 353
1953260N07153 1953 56 WP MM TESS 1953-09-22 18:00:00 TS 21.0433 132.902 900 tokyo main 1138 1083 OOO______OPO__ jtwc_wp WP151953 21.5000 132.900 120 4 20.0000 132.800 9 900 0 0 0 20.2000 132.900 6 145 910 21.5000 132.900 TC 120 21.5599 133.012 4 127 21.5000 132.900 120 934 480 9 357
1953260N07153 1953 56 WP MM TESS 1953-09-22 21:00:00 TS 21.4900 132.910 main 1083 1039 PPP______PPP__ WP151953 22.0150 132.927 120 4 20.3600 132.793 9 907 0 0 20.4900 132.885 6 145 911 22.0150 132.927 TC 120 22.0449 132.998 4 123 22.0150 132.927 120 924 480 9 3
1953260N07153 1953 56 WP MM TESS 1953-09-23 00:00:00 TS 21.9667 132.950 915 tokyo main 1030 987 OOO______OOO__ jtwc_wp WP151953 22.5000 133.000 120 4 20.9000 132.800 9 915 0 0 0 20.9000 132.900 6 145 912 22.5000 133.000 TC 120 22.5000 133.000 4 120 22.5000 133.000 120 914 480 10 5
1953260N07153 1953 56 WP MM TESS 1953-09-23 03:00:00 TS 22.4702 133.000 main 976 932 PPP______PPP__ WP151953 22.9150 133.057 120 4 21.6350 132.877 9 915 0 0 21.5125 132.942 6 130 913 22.9150 133.057 TC 120 22.9287 133.010 4 112 22.9150 133.057 120 913 450 10 5
1953260N07153 1953 56 WP MM TESS 1953-09-23 06:00:00 TS 22.9717 133.056 915 tokyo main 924 881 OOO______OPO__ jtwc_wp WP151953 23.3000 133.100 120 4 22.4000 133.000 9 915 0 0 0 22.2000 133.000 6 116 914 23.3000 133.100 TC 120 23.3300 133.035 4 105 23.3000 133.100 120 912 420 10 6
1953260N07153 1953 56 WP MM TESS 1953-09-23 09:00:00 TS 23.4377 133.104 main 881 827 PPP______PPP__ WP151953 23.7075 133.108 105 3 22.9800 133.187 9 915 0 0 22.8075 133.050 6 116 914 23.7075 133.108 TC 105 23.7162 133.067 4 97 23.7075 133.108 105 921 420 9 4
1953260N07153 1953 56 WP MM TESS 1953-09-23 12:00:00 TS 23.8833 133.133 915 tokyo main 827 784 OOO______OOO__ jtwc_wp WP151953 24.1000 133.100 90 2 23.5000 133.300 9 915 0 0 0 23.4000 133.100 6 116 915 24.1000 133.100 TC 90 24.1000 133.100 4 90 24.1000 133.100 90 931 420 9 1
1953260N07153 1953 56 WP MM TESS 1953-09-23 15:00:00 TS 24.3081 133.119 main 784 741 PPP______PPP__ WP151953 24.4425 133.093 90 2 24.0501 133.181 9 915 0 0 24.0075 133.150 6 116 915 24.4425 133.093 TC 90 24.4634 133.105 4 90 24.4425 133.093 90 942 420 9 358
1953260N07153 1953 56 WP MM TESS 1953-09-23 18:00:00 TS 24.7387 133.102 915 tokyo main 741 688 OOO______OPO__ jtwc_wp WP151953 24.8000 133.100 90 2 24.6000 133.000 9 915 0 0 0 24.6000 133.200 6 116 915 24.8000 133.100 TC 90 24.8325 133.114 4 90 24.8000 133.100 90 954 420 9 359
1953260N07153 1953 56 WP MM TESS 1953-09-23 21:00:00 TS 25.2004 133.106 main 688 640 PPP______PPP__ WP151953 25.2200 133.120 90 2 25.1499 132.890 9 915 0 0 25.1575 133.243 6 116 915 25.2200 133.120 TC 90 25.2353 133.140 4 90 25.2200 133.120 90 963 420 10 3
1953260N07153 1953 56 WP MM TESS 1953-09-24 00:00:00 TS 25.7000 133.167 915 tokyo main 640 592 OOO______OOO__ jtwc_wp WP151953 25.7000 133.200 90 2 25.7000 132.900 9 915 0 0 0 25.7000 133.300 6 116 915 25.7000 133.200 TC 90 25.7000 133.200 4 90 25.7000 133.200 90 973 420 10 11
1953260N07153 1953 56 WP MM TESS 1953-09-24 03:00:00 TS 26.2170 133.330 main 592 542 PPP______PPP__ WP151953 26.2126 133.392 90 2 26.2202 133.120 9 915 0 0 26.2200 133.385 6 106 915 26.2126 133.392 TC 90 26.2239 133.298 4 90 26.2126 133.392 90 974 420 12 16
1953260N07153 1953 56 WP MM TESS 1953-09-24 06:00:00 TS 26.8025 133.522 915 tokyo main 542 490 OOO______OPO__ jtwc_wp WP151953 26.8000 133.600 90 2 26.8000 133.400 9 915 0 0 0 26.8000 133.500 5 97 915 26.8000 133.600 TC 90 26.8152 133.434 4 90 26.8000 133.600 90 976 420 13 13
1953260N07153 1953 56 WP MM TESS 1953-09-24 09:00:00 TS 27.4785 133.651 main 486 425 PPP______PPP__ WP151953 27.4624 133.701 90 2 27.5050 133.565 9 915 0 0 27.5050 133.635 5 97 915 27.4624 133.701 TC 90 27.4738 133.602 4 90 27.4624 133.701 90 978 420 15 9
1953260N07153 1953 56 WP MM TESS 1953-09-24 12:00:00 TS 28.2333 133.783 915 tokyo main 425 359 OOO______OOO__ jtwc_wp WP151953 28.2000 133.800 90 2 28.3000 133.700 9 915 0 0 0 28.3000 133.800 5 97 915 28.2000 133.800 TC 90 28.2000 133.800 4 90 28.2000 133.800 90 980 420 16 9
1953260N07153 1953 56 WP MM TESS 1953-09-24 15:00:00 TS 29.0218 133.938 main 359 313 PPP______PPP__ WP151953 28.9700 133.970 77 1 29.1347 133.806 9 915 0 0 29.1349 133.971 5 97 915 28.9700 133.970 TC 77 28.9515 133.943 4 83 28.9700 133.970 77 981 390 17 11
1953260N07153 1953 56 WP MM TESS 1953-09-24 18:00:00 TS 29.8617 134.154 915 tokyo main 315 259 OOO______OPO__ jtwc_wp WP151953 29.8000 134.200 65 1 30.0000 134.000 9 915 0 0 0 30.0000 134.200 5 97 915 29.8000 134.200 TC 65 29.7702 134.124 4 77 29.8000 134.200 65 983 360 18 14
1953260N07153 1953 56 WP MM TESS 1953-09-24 21:00:00 TS 30.7244 134.422 main 259 187 PPP______PPP__ WP151953 30.6694 134.420 65 1 30.8424 134.383 9 922 0 0 30.8423 134.499 5 87 922 30.6694 134.420 TC 65 30.6538 134.392 4 71 30.6694 134.420 65 984 390 19 18
1953260N07153 1953 56 WP MM TESS 1953-09-25 00:00:00 TS 31.6333 134.833 930 tokyo main 187 107 OOO______OOO__ jtwc_wp WP151953 31.6000 134.800 65 1 31.7000 134.900 9 930 0 0 0 31.7000 134.900 4 77 930 31.6000 134.800 TC 65 31.6000 134.800 4 65 31.6000 134.800 65 986 420 20 25
1953260N07153 1953 56 WP MM TESS 1953-09-25 03:00:00 TS 32.5706 135.435 main 96 14 PPP______PPP__ WP151953 32.5704 135.475 65 1 32.5543 135.435 9 930 0 0 32.5542 135.363 4 77 930 32.5704 135.475 TC 65 32.6036 135.385 4 65 32.5704 135.475 65 988 420 23 30
1953260N07153 1953 56 WP MM TESS 1953-09-25 06:00:00 TS 33.5704 136.185 930 tokyo main 18 0 OOO______OPO__ jtwc_wp WP151953 33.6000 136.300 65 1 33.5000 136.100 9 930 0 0 0 33.5000 136.000 4 77 930 33.6000 136.300 TC 65 33.6498 136.124 4 65 33.6000 136.300 65 990 420 24 31
1953260N07153 1953 56 WP MM TESS 1953-09-25 09:00:00 TS 34.6248 136.944 main 9 0 PPP______PPP__ WP151953 34.6818 136.986 65 1 34.5284 136.880 9 952 0 0 34.5288 136.822 4 67 952 34.6818 136.986 TC 65 34.7210 136.977 4 65 34.6855 137.109 65 991 420 26 32
1953260N07153 1953 56 WP MM TESS 1953-09-25 12:00:00 TS 35.8000 137.900 974 tokyo main 0 0 OOO______OOO__ jtwc_wp WP151953 35.8000 137.900 65 1 35.8000 137.900 9 974 0 0 0 35.8000 137.900 3 58 974 35.8000 137.900 TC 65 35.8000 137.900 4 65 35.8000 137.900 65 993 420 32 37
1953260N07153 1953 56 WP MM TESS 1953-09-25 15:00:00 TS 37.1787 139.348 main 0 0 PPP______P____ WP151953 36.8447 139.419 62 0 37.5090 139.274 9 976 0 0 37.5163 139.282 3 58 976 36.8447 139.419 TC 62 4 37 40
1953260N07153 1953 56 WP MM TESS 1953-09-25 18:00:00 TS 38.6000 140.900 978 tokyo main 0 0 OOO______O____ jtwc_wp WP151953 38.0000 141.000 60 0 39.2000 140.800 9 978 0 0 0 39.2000 140.800 3 58 978 38.0000 141.000 TC 60 4 35 38
1953260N07153 1953 56 WP MM TESS 1953-09-25 21:00:00 TS 39.9502 142.131 main 16 16 PPP______P____ WP151953 39.5105 142.049 55 0 40.4111 142.210 9 978 0 0 40.3688 142.217 3 58 978 39.5105 142.049 TC 55 4 31 35
1953260N07153 1953 56 WP MM TESS 1953-09-26 00:00:00 TS 41.1750 143.250 978 tokyo main 78 53 OOO______O____ jtwc_wp WP151953 41.0000 143.000 50 0 41.4000 143.500 9 978 0 0 0 41.3000 143.500 3 58 978 41.0000 143.000 TC 50 28 37
1953260N07153 1953 56 WP MM TESS 1953-09-26 03:00:00 TS 42.2053 144.412 main 79 11 PPP______P____ WP151953 42.0746 144.218 47 0 42.4224 144.634 9 979 0 0 42.2494 144.578 3 53 979 42.0746 144.218 TC 47 26 42
1953260N07153 1953 56 WP MM TESS 1953-09-26 06:00:00 MX 43.1000 145.575 980 tokyo main 13 8 OOO______O____ jtwc_wp WP151953 43.0000 145.500 45 0 43.3000 145.700 9 980 0 0 0 43.1000 145.600 9 48 980 43.0000 145.500 TC 45 25 45
1953260N07153 1953 56 WP MM TESS 1953-09-26 09:00:00 MX 43.9837 146.849 main 50 23 PPP______P____ WP151953 44.0763 146.858 42 0 43.9446 146.870 9 980 0 0 43.8377 146.810 9 43 980 44.0763 146.858 TC 42 24 47
1953260N07153 1953 56 WP MM TESS 1953-09-26 12:00:00 MX 44.7500 148.000 980 tokyo main 23 0 OOO______O____ jtwc_wp WP151953 45.0000 148.000 40 0 44.5000 148.000 9 980 0 0 0 44.5000 148.000 9 38 980 45.0000 148.000 TC 40 20 46
1953260N07153 1953 56 WP MM TESS 1953-09-26 15:00:00 MX 45.3553 148.849 main 0 0 PPP______P____ WP151953 45.5723 148.620 45 0 45.1120 149.070 9 980 0 0 45.1644 149.084 9 38 980 45.5723 148.620 TC 45 16 43
1953260N07153 1953 56 WP MM TESS 1953-09-26 18:00:00 MX 45.9000 149.500 980 tokyo main 13 13 OOO______O____ jtwc_wp WP151953 46.0000 149.000 50 0 45.8000 150.000 9 980 0 0 0 45.8000 150.000 9 38 980 46.0000 149.000 TC 50 14 38
1953260N07153 1953 56 WP MM TESS 1953-09-26 21:00:00 MX 46.5024 150.117 main 45 45 PPP______P____ WP151953 46.4623 149.502 47 0 46.6863 150.760 9 980 0 0 46.3985 150.706 9 980 46.4623 149.502 TC 47 15 33
1953260N07153 1953 56 WP MM TESS 1953-09-27 00:00:00 MX 47.1250 150.675 980 tokyo main 113 113 OOO______O____ jtwc_wp WP151953 47.0000 150.000 45 0 47.5000 151.400 9 980 0 0 0 47.0000 151.300 9 980 47.0000 150.000 TC 45 15 32
1953260N07153 1953 56 WP MM TESS 1953-09-27 03:00:00 MX 47.7757 151.287 main 200 200 PPP______P____ WP151953 47.7723 150.499 45 0 47.9227 152.107 9 981 0 0 47.6357 152.045 9 981 47.7723 150.499 TC 45 15 33
1953260N07153 1953 56 WP MM TESS 1953-09-27 06:00:00 MX 48.3857 151.914 982 tokyo main 279 241 OOO______O____ jtwc_wp WP151953 48.5000 151.000 45 0 48.3000 152.600 9 982 0 0 0 48.3000 152.600 9 982 48.5000 151.000 TC 45 14 31
1953260N07153 1953 56 WP MM TESS 1953-09-27 09:00:00 MX 48.9675 152.375 main 235 200 PPP______P____ WP151953 48.9429 151.501 42 0 48.9611 152.808 9 984 0 0 48.9984 152.816 9 984 48.9429 151.501 TC 42 13 17
1953260N07153 1953 56 WP MM TESS 1953-09-27 12:00:00 MX 49.6000 152.480 986 tokyo main 200 200 OOO______O____ jtwc_wp WP151953 49.2000 152.000 40 0 49.7000 152.600 9 986 0 0 0 49.7000 152.600 9 986 49.2000 152.000 TC 40 16 344
1953260N07153 1953 56 WP MM TESS 1953-09-27 15:00:00 ET 50.4577 151.698 main 247 247 _PP___________ WP151953 -1 50.4577 151.698 9 988 0 0 50.4577 151.698 9 988 TC 17 326
1953260N07153 1953 56 WP MM TESS 1953-09-27 18:00:00 ET 51.0000 151.000 990 tokyo main 304 274 _OO___________ -1 51.0000 151.000 6 990 0 0 0 51.0000 151.000 9 990 7 349
1953260N07153 1953 56 WP MM TESS 1953-09-27 21:00:00 ET 51.0980 151.508 main 274 211 _PP___________ -1 51.0980 151.508 6 990 0 0 51.0980 151.508 9 990 9 90
1953260N07153 1953 56 WP MM TESS 1953-09-28 00:00:00 ET 51.0000 152.500 990 tokyo main 204 154 _OO___________ -1 51.0000 152.500 6 990 0 0 0 51.0000 152.500 9 990 12 95
1953260N07153 1953 56 WP MM TESS 1953-09-28 03:00:00 ET 51.0009 153.375 main 148 109 _PP___________ -1 51.0009 153.375 6 993 0 0 51.0009 153.375 9 993 10 90
1953260N07153 1953 56 WP MM TESS 1953-09-28 06:00:00 ET 51.0000 154.100 996 tokyo main 109 100 _OO___________ -1 51.0000 154.100 6 996 0 0 0 51.0000 154.100 9 996 6 90
1953260N07153 1953 56 WP MM TESS 1953-09-28 09:00:00 ET 51.0022 154.327 main 100 88 _PP___________ -1 51.0037 154.260 6 996 0 0 50.9993 154.463 9 996 3 90
1953260N07153 1953 56 WP MM TESS 1953-09-28 12:00:00 ET 51.0000 154.600 996 tokyo main 88 36 _OO___________ -1 51.0000 154.600 6 996 0 0 0 51.0000 154.600 9 996 10 92
1953260N07153 1953 56 WP MM TESS 1953-09-28 15:00:00 ET 50.9705 155.918 main 34 0 _P____________ -1 50.9705 155.918 6 998 0 0 9 18 93
1953260N07153 1953 56 WP MM TESS 1953-09-28 18:00:00 ET 50.9000 157.400 1000 tokyo main 35 35 _O____________ -1 50.9000 157.400 6 1000 0 0 0 15 96
1953260N07153 1953 56 WP MM TESS 1953-09-28 21:00:00 ET 50.8198 158.296 main 86 86 _P____________ -1 50.8198 158.296 6 1001 0 0 10 101
1953260N07153 1953 56 WP MM TESS 1953-09-29 00:00:00 ET 50.7000 159.000 1002 tokyo main 125 125 _O____________ -1 50.7000 159.000 6 1002 0 0 0 10 108
1953260N07153 1953 56 WP MM TESS 1953-09-29 03:00:00 ET 50.5195 159.732 main 174 174 _P____________ -1 50.5195 159.732 6 1002 0 0 10 113
1953260N07153 1953 56 WP MM TESS 1953-09-29 06:00:00 ET 50.3000 160.500 1003 tokyo main 231 _O____________ -1 50.3000 160.500 6 1003 0 0 0 11 114

デジタル台風データ・検索

IBTrACS Databaseについて

本データベースは、米国NOAAが公開する1842年以降の世界の熱帯低気圧のベストトラックデータアーカイブInternational Best Track Archive for Climate Stewardship (IBTrACS)を、ウェブで閲覧しやすい形式に変換したものです。

最終更新日:2021-10-08